sensor_id;sensor_type;location;lat;lon;timestamp;temperature;humidity
37086;DHT22;23001;45.952;12.676;2023-04-03T00:01:09;11.90;99.90
37086;DHT22;23001;45.952;12.676;2023-04-03T00:03:37;11.90;99.90
37086;DHT22;23001;45.952;12.676;2023-04-03T00:06:05;11.80;99.90
37086;DHT22;23001;45.952;12.676;2023-04-03T00:08:35;11.70;99.90
37086;DHT22;23001;45.952;12.676;2023-04-03T00:11:02;11.70;99.90
37086;DHT22;23001;45.952;12.676;2023-04-03T00:13:28;11.60;99.90
37086;DHT22;23001;45.952;12.676;2023-04-03T00:15:54;11.70;99.90
37086;DHT22;23001;45.952;12.676;2023-04-03T00:18:20;11.60;99.90
37086;DHT22;23001;45.952;12.676;2023-04-03T00:20:47;11.60;99.90
37086;DHT22;23001;45.952;12.676;2023-04-03T00:23:13;11.70;99.90
37086;DHT22;23001;45.952;12.676;2023-04-03T00:25:41;11.60;99.90
37086;DHT22;23001;45.952;12.676;2023-04-03T00:28:07;11.50;99.90
37086;DHT22;23001;45.952;12.676;2023-04-03T00:30:32;11.40;99.90
37086;DHT22;23001;45.952;12.676;2023-04-03T00:32:58;11.40;99.90
37086;DHT22;23001;45.952;12.676;2023-04-03T00:35:40;11.50;99.90
37086;DHT22;23001;45.952;12.676;2023-04-03T00:38:06;11.60;99.90
37086;DHT22;23001;45.952;12.676;2023-04-03T00:40:37;11.70;99.90
37086;DHT22;23001;45.952;12.676;2023-04-03T00:43:05;11.60;99.90
37086;DHT22;23001;45.952;12.676;2023-04-03T00:45:36;11.50;99.90
37086;DHT22;23001;45.952;12.676;2023-04-03T00:48:06;11.40;99.90
37086;DHT22;23001;45.952;12.676;2023-04-03T00:50:34;11.40;99.90
37086;DHT22;23001;45.952;12.676;2023-04-03T00:53:01;11.40;99.90
37086;DHT22;23001;45.952;12.676;2023-04-03T00:55:30;11.30;99.90
37086;DHT22;23001;45.952;12.676;2023-04-03T00:57:59;11.40;99.90
37086;DHT22;23001;45.952;12.676;2023-04-03T01:00:36;11.20;99.90
37086;DHT22;23001;45.952;12.676;2023-04-03T01:03:03;11.20;99.90
37086;DHT22;23001;45.952;12.676;2023-04-03T01:05:29;11.20;99.90
37086;DHT22;23001;45.952;12.676;2023-04-03T01:08:04;11.20;99.90
37086;DHT22;23001;45.952;12.676;2023-04-03T01:10:39;11.20;99.90
37086;DHT22;23001;45.952;12.676;2023-04-03T01:13:23;11.20;99.90
37086;DHT22;23001;45.952;12.676;2023-04-03T01:15:53;11.10;99.90
37086;DHT22;23001;45.952;12.676;2023-04-03T01:18:19;10.90;99.90
37086;DHT22;23001;45.952;12.676;2023-04-03T01:23:56;10.90;99.90
37086;DHT22;23001;45.952;12.676;2023-04-03T01:26:24;10.90;99.90
37086;DHT22;23001;45.952;12.676;2023-04-03T01:29:20;11.00;99.90
37086;DHT22;23001;45.952;12.676;2023-04-03T01:34:57;10.90;99.90
37086;DHT22;23001;45.952;12.676;2023-04-03T01:37:23;10.80;99.90
37086;DHT22;23001;45.952;12.676;2023-04-03T01:39:51;10.80;99.90
37086;DHT22;23001;45.952;12.676;2023-04-03T01:42:17;10.70;99.90
37086;DHT22;23001;45.952;12.676;2023-04-03T01:44:45;10.70;99.90
37086;DHT22;23001;45.952;12.676;2023-04-03T01:47:12;10.70;99.90
37086;DHT22;23001;45.952;12.676;2023-04-03T01:49:37;10.60;99.90
37086;DHT22;23001;45.952;12.676;2023-04-03T01:52:07;10.50;99.90
37086;DHT22;23001;45.952;12.676;2023-04-03T01:54:38;10.40;99.90
37086;DHT22;23001;45.952;12.676;2023-04-03T01:57:04;10.40;99.90
37086;DHT22;23001;45.952;12.676;2023-04-03T01:59:30;10.50;99.90
37086;DHT22;23001;45.952;12.676;2023-04-03T02:01:56;10.60;99.90
37086;DHT22;23001;45.952;12.676;2023-04-03T02:04:25;10.70;99.90
37086;DHT22;23001;45.952;12.676;2023-04-03T02:06:50;10.60;99.90
37086;DHT22;23001;45.952;12.676;2023-04-03T02:09:19;10.50;99.90
37086;DHT22;23001;45.952;12.676;2023-04-03T02:11:45;10.50;99.90
37086;DHT22;23001;45.952;12.676;2023-04-03T02:14:11;10.50;99.90
37086;DHT22;23001;45.952;12.676;2023-04-03T02:16:37;10.50;99.90
37086;DHT22;23001;45.952;12.676;2023-04-03T02:19:03;10.50;99.90
37086;DHT22;23001;45.952;12.676;2023-04-03T02:21:29;10.50;99.90
37086;DHT22;23001;45.952;12.676;2023-04-03T02:24:07;10.50;99.90
37086;DHT22;23001;45.952;12.676;2023-04-03T02:26:33;10.50;99.90
37086;DHT22;23001;45.952;12.676;2023-04-03T02:28:59;10.50;99.90
37086;DHT22;23001;45.952;12.676;2023-04-03T02:31:25;10.40;99.90
37086;DHT22;23001;45.952;12.676;2023-04-03T02:33:51;10.30;99.90
37086;DHT22;23001;45.952;12.676;2023-04-03T02:36:17;10.20;99.90
37086;DHT22;23001;45.952;12.676;2023-04-03T02:38:43;10.30;99.90
37086;DHT22;23001;45.952;12.676;2023-04-03T02:41:10;10.40;99.90
37086;DHT22;23001;45.952;12.676;2023-04-03T02:43:36;10.30;99.90
37086;DHT22;23001;45.952;12.676;2023-04-03T02:46:02;10.20;99.90
37086;DHT22;23001;45.952;12.676;2023-04-03T02:48:28;10.10;99.90
37086;DHT22;23001;45.952;12.676;2023-04-03T02:50:54;10.20;99.90
37086;DHT22;23001;45.952;12.676;2023-04-03T02:53:20;10.30;99.90
37086;DHT22;23001;45.952;12.676;2023-04-03T02:55:53;10.20;99.90
37086;DHT22;23001;45.952;12.676;2023-04-03T02:58:24;10.20;99.90
37086;DHT22;23001;45.952;12.676;2023-04-03T03:00:50;10.10;99.90
37086;DHT22;23001;45.952;12.676;2023-04-03T03:03:16;10.10;99.90
37086;DHT22;23001;45.952;12.676;2023-04-03T03:05:42;10.10;99.90
37086;DHT22;23001;45.952;12.676;2023-04-03T03:08:08;10.10;99.90
37086;DHT22;23001;45.952;12.676;2023-04-03T03:10:34;10.10;99.90
37086;DHT22;23001;45.952;12.676;2023-04-03T03:13:00;10.10;99.90
37086;DHT22;23001;45.952;12.676;2023-04-03T03:15:32;10.10;99.90
37086;DHT22;23001;45.952;12.676;2023-04-03T03:17:58;10.10;99.90
37086;DHT22;23001;45.952;12.676;2023-04-03T03:20:24;10.00;99.90
37086;DHT22;23001;45.952;12.676;2023-04-03T03:23:43;10.10;99.90
37086;DHT22;23001;45.952;12.676;2023-04-03T03:25:46;10.10;99.90
37086;DHT22;23001;45.952;12.676;2023-04-03T03:28:12;10.10;99.90
37086;DHT22;23001;45.952;12.676;2023-04-03T03:30:40;10.00;99.90
37086;DHT22;23001;45.952;12.676;2023-04-03T03:33:06;9.90;99.90
37086;DHT22;23001;45.952;12.676;2023-04-03T03:35:32;9.90;99.90
37086;DHT22;23001;45.952;12.676;2023-04-03T03:38:00;10.00;99.90
37086;DHT22;23001;45.952;12.676;2023-04-03T03:40:26;10.00;99.90
37086;DHT22;23001;45.952;12.676;2023-04-03T03:42:55;10.00;99.90
37086;DHT22;23001;45.952;12.676;2023-04-03T03:45:20;10.00;99.90
37086;DHT22;23001;45.952;12.676;2023-04-03T03:47:50;9.90;99.90
37086;DHT22;23001;45.952;12.676;2023-04-03T03:50:18;9.90;99.90
37086;DHT22;23001;45.952;12.676;2023-04-03T03:52:44;9.90;99.90
37086;DHT22;23001;45.952;12.676;2023-04-03T03:55:10;9.80;99.90
37086;DHT22;23001;45.952;12.676;2023-04-03T03:57:36;9.70;99.90
37086;DHT22;23001;45.952;12.676;2023-04-03T04:00:02;9.80;99.90
37086;DHT22;23001;45.952;12.676;2023-04-03T04:02:31;9.80;99.90
37086;DHT22;23001;45.952;12.676;2023-04-03T04:04:57;9.90;99.90
37086;DHT22;23001;45.952;12.676;2023-04-03T04:07:26;9.80;99.90
37086;DHT22;23001;45.952;12.676;2023-04-03T04:10:01;9.90;99.90
37086;DHT22;23001;45.952;12.676;2023-04-03T04:12:27;10.00;99.90
37086;DHT22;23001;45.952;12.676;2023-04-03T04:14:53;10.00;99.90
37086;DHT22;23001;45.952;12.676;2023-04-03T04:17:28;10.10;99.90
37086;DHT22;23001;45.952;12.676;2023-04-03T04:20:04;10.10;99.90
37086;DHT22;23001;45.952;12.676;2023-04-03T04:22:34;10.20;99.90
37086;DHT22;23001;45.952;12.676;2023-04-03T04:24:59;10.20;99.90
37086;DHT22;23001;45.952;12.676;2023-04-03T04:27:28;10.40;99.90
37086;DHT22;23001;45.952;12.676;2023-04-03T04:29:54;10.50;99.90
37086;DHT22;23001;45.952;12.676;2023-04-03T04:32:20;10.40;99.90
37086;DHT22;23001;45.952;12.676;2023-04-03T04:34:46;10.40;99.90
37086;DHT22;23001;45.952;12.676;2023-04-03T04:37:12;10.40;99.90
37086;DHT22;23001;45.952;12.676;2023-04-03T04:39:38;10.30;99.90
37086;DHT22;23001;45.952;12.676;2023-04-03T04:42:04;10.30;99.90
37086;DHT22;23001;45.952;12.676;2023-04-03T04:44:32;10.30;99.90
37086;DHT22;23001;45.952;12.676;2023-04-03T04:47:03;10.20;99.90
37086;DHT22;23001;45.952;12.676;2023-04-03T04:49:28;10.20;99.90
37086;DHT22;23001;45.952;12.676;2023-04-03T04:52:04;10.20;99.90
37086;DHT22;23001;45.952;12.676;2023-04-03T04:54:40;10.20;99.90
37086;DHT22;23001;45.952;12.676;2023-04-03T04:57:06;10.10;99.90
37086;DHT22;23001;45.952;12.676;2023-04-03T04:59:32;10.00;99.90
37086;DHT22;23001;45.952;12.676;2023-04-03T05:02:00;9.80;99.90
37086;DHT22;23001;45.952;12.676;2023-04-03T05:04:26;9.50;99.90
37086;DHT22;23001;45.952;12.676;2023-04-03T05:06:52;9.40;99.90
37086;DHT22;23001;45.952;12.676;2023-04-03T05:09:25;9.30;99.90
37086;DHT22;23001;45.952;12.676;2023-04-03T05:12:11;9.30;99.90
37086;DHT22;23001;45.952;12.676;2023-04-03T05:14:37;9.30;99.90
37086;DHT22;23001;45.952;12.676;2023-04-03T05:17:08;9.30;99.90
37086;DHT22;23001;45.952;12.676;2023-04-03T05:19:35;9.40;99.90
37086;DHT22;23001;45.952;12.676;2023-04-03T05:22:07;9.30;99.90
37086;DHT22;23001;45.952;12.676;2023-04-03T05:24:38;9.30;99.90
37086;DHT22;23001;45.952;12.676;2023-04-03T05:27:04;9.20;99.90
37086;DHT22;23001;45.952;12.676;2023-04-03T05:29:35;9.40;99.90
37086;DHT22;23001;45.952;12.676;2023-04-03T05:32:01;9.50;99.90
37086;DHT22;23001;45.952;12.676;2023-04-03T05:34:27;9.50;99.90
37086;DHT22;23001;45.952;12.676;2023-04-03T05:36:54;9.60;99.90
37086;DHT22;23001;45.952;12.676;2023-04-03T05:39:20;9.70;99.90
37086;DHT22;23001;45.952;12.676;2023-04-03T05:41:46;9.80;99.90
37086;DHT22;23001;45.952;12.676;2023-04-03T05:44:12;9.80;99.90
37086;DHT22;23001;45.952;12.676;2023-04-03T05:46:40;9.80;99.90
37086;DHT22;23001;45.952;12.676;2023-04-03T05:49:06;9.90;99.90
37086;DHT22;23001;45.952;12.676;2023-04-03T05:51:39;10.00;99.90
37086;DHT22;23001;45.952;12.676;2023-04-03T05:54:12;10.10;99.90
37086;DHT22;23001;45.952;12.676;2023-04-03T05:56:43;10.30;99.90
37086;DHT22;23001;45.952;12.676;2023-04-03T05:59:08;10.50;99.90
37086;DHT22;23001;45.952;12.676;2023-04-03T06:01:34;10.70;99.90
37086;DHT22;23001;45.952;12.676;2023-04-03T06:04:10;10.70;99.90
37086;DHT22;23001;45.952;12.676;2023-04-03T06:06:52;11.00;99.90
37086;DHT22;23001;45.952;12.676;2023-04-03T06:09:25;11.20;99.90
37086;DHT22;23001;45.952;12.676;2023-04-03T06:12:00;11.60;99.90
37086;DHT22;23001;45.952;12.676;2023-04-03T06:14:26;12.00;99.90
37086;DHT22;23001;45.952;12.676;2023-04-03T06:16:52;12.40;99.90
37086;DHT22;23001;45.952;12.676;2023-04-03T06:19:20;12.60;99.90
37086;DHT22;23001;45.952;12.676;2023-04-03T06:21:46;13.00;99.90
37086;DHT22;23001;45.952;12.676;2023-04-03T06:24:25;13.40;99.90
37086;DHT22;23001;45.952;12.676;2023-04-03T06:29:58;13.80;99.90
37086;DHT22;23001;45.952;12.676;2023-04-03T06:32:24;13.90;99.90
37086;DHT22;23001;45.952;12.676;2023-04-03T06:34:50;14.10;99.90
37086;DHT22;23001;45.952;12.676;2023-04-03T06:37:18;14.30;99.90
37086;DHT22;23001;45.952;12.676;2023-04-03T06:39:45;14.70;99.90
37086;DHT22;23001;45.952;12.676;2023-04-03T06:42:10;14.50;99.90
37086;DHT22;23001;45.952;12.676;2023-04-03T06:44:36;14.70;99.90
37086;DHT22;23001;45.952;12.676;2023-04-03T06:47:02;14.60;99.90
37086;DHT22;23001;45.952;12.676;2023-04-03T06:49:28;14.60;99.90
37086;DHT22;23001;45.952;12.676;2023-04-03T06:52:01;14.60;99.70
37086;DHT22;23001;45.952;12.676;2023-04-03T06:54:27;14.50;99.00
37086;DHT22;23001;45.952;12.676;2023-04-03T06:56:53;14.30;99.10
37086;DHT22;23001;45.952;12.676;2023-04-03T06:59:19;14.10;98.90
37086;DHT22;23001;45.952;12.676;2023-04-03T07:01:45;14.10;98.70
37086;DHT22;23001;45.952;12.676;2023-04-03T07:04:19;14.30;98.60
37086;DHT22;23001;45.952;12.676;2023-04-03T07:06:46;14.40;98.10
37086;DHT22;23001;45.952;12.676;2023-04-03T07:09:12;14.10;98.30
37086;DHT22;23001;45.952;12.676;2023-04-03T07:11:38;14.00;98.30
37086;DHT22;23001;45.952;12.676;2023-04-03T07:14:04;14.20;98.00
37086;DHT22;23001;45.952;12.676;2023-04-03T07:16:31;13.90;97.80
37086;DHT22;23001;45.952;12.676;2023-04-03T07:19:02;14.10;98.10
37086;DHT22;23001;45.952;12.676;2023-04-03T07:21:34;14.20;98.10
37086;DHT22;23001;45.952;12.676;2023-04-03T07:24:00;14.60;96.70
37086;DHT22;23001;45.952;12.676;2023-04-03T07:26:26;14.80;96.70
37086;DHT22;23001;45.952;12.676;2023-04-03T07:28:51;14.70;97.50
37086;DHT22;23001;45.952;12.676;2023-04-03T07:31:17;14.50;96.60
37086;DHT22;23001;45.952;12.676;2023-04-03T07:33:44;14.50;96.50
37086;DHT22;23001;45.952;12.676;2023-04-03T07:36:11;14.70;96.10
37086;DHT22;23001;45.952;12.676;2023-04-03T07:38:39;15.00;96.10
37086;DHT22;23001;45.952;12.676;2023-04-03T07:41:05;15.10;95.40
37086;DHT22;23001;45.952;12.676;2023-04-03T07:43:31;14.60;96.20
37086;DHT22;23001;45.952;12.676;2023-04-03T07:45:57;14.80;95.60
37086;DHT22;23001;45.952;12.676;2023-04-03T07:48:26;14.80;95.40
37086;DHT22;23001;45.952;12.676;2023-04-03T07:50:58;14.90;95.90
37086;DHT22;23001;45.952;12.676;2023-04-03T07:53:24;14.90;94.70
37086;DHT22;23001;45.952;12.676;2023-04-03T07:55:53;15.00;95.20
37086;DHT22;23001;45.952;12.676;2023-04-03T07:58:42;14.90;94.70
37086;DHT22;23001;45.952;12.676;2023-04-03T08:01:13;15.00;94.70
37086;DHT22;23001;45.952;12.676;2023-04-03T08:03:45;14.80;94.30
37086;DHT22;23001;45.952;12.676;2023-04-03T08:09:15;14.80;95.50
37086;DHT22;23001;45.952;12.676;2023-04-03T08:11:41;14.90;94.30
37086;DHT22;23001;45.952;12.676;2023-04-03T08:14:07;14.90;95.30
37086;DHT22;23001;45.952;12.676;2023-04-03T08:16:33;15.00;94.50
37086;DHT22;23001;45.952;12.676;2023-04-03T08:19:02;15.00;94.20
37086;DHT22;23001;45.952;12.676;2023-04-03T08:21:28;14.90;93.80
37086;DHT22;23001;45.952;12.676;2023-04-03T08:23:56;14.70;93.70
37086;DHT22;23001;45.952;12.676;2023-04-03T08:26:22;14.70;94.20
37086;DHT22;23001;45.952;12.676;2023-04-03T08:28:48;14.60;94.40
37086;DHT22;23001;45.952;12.676;2023-04-03T08:31:15;14.40;94.20
37086;DHT22;23001;45.952;12.676;2023-04-03T08:33:45;14.50;93.90
37086;DHT22;23001;45.952;12.676;2023-04-03T08:36:21;14.60;93.40
37086;DHT22;23001;45.952;12.676;2023-04-03T08:38:47;14.50;93.90
37086;DHT22;23001;45.952;12.676;2023-04-03T08:44:16;14.40;94.40
37086;DHT22;23001;45.952;12.676;2023-04-03T08:46:51;14.50;93.60
37086;DHT22;23001;45.952;12.676;2023-04-03T08:49:40;14.50;94.40
37086;DHT22;23001;45.952;12.676;2023-04-03T08:52:14;14.30;94.70
37086;DHT22;23001;45.952;12.676;2023-04-03T08:54:51;14.60;94.30
37086;DHT22;23001;45.952;12.676;2023-04-03T08:57:20;14.40;94.00
37086;DHT22;23001;45.952;12.676;2023-04-03T08:59:59;14.20;94.50
37086;DHT22;23001;45.952;12.676;2023-04-03T09:02:31;14.10;94.30
37086;DHT22;23001;45.952;12.676;2023-04-03T09:05:16;14.40;94.40
37086;DHT22;23001;45.952;12.676;2023-04-03T09:07:43;14.30;94.00
37086;DHT22;23001;45.952;12.676;2023-04-03T09:10:10;14.30;95.40
37086;DHT22;23001;45.952;12.676;2023-04-03T09:12:46;14.70;94.00
37086;DHT22;23001;45.952;12.676;2023-04-03T09:15:17;14.60;93.50
37086;DHT22;23001;45.952;12.676;2023-04-03T09:20:21;14.70;94.30
37086;DHT22;23001;45.952;12.676;2023-04-03T09:22:49;14.90;94.70
37086;DHT22;23001;45.952;12.676;2023-04-03T09:27:44;14.50;94.30
37086;DHT22;23001;45.952;12.676;2023-04-03T09:30:26;14.80;94.40
37086;DHT22;23001;45.952;12.676;2023-04-03T09:32:52;14.90;95.30
37086;DHT22;23001;45.952;12.676;2023-04-03T09:35:32;14.60;93.90
37086;DHT22;23001;45.952;12.676;2023-04-03T09:38:02;14.60;94.60
37086;DHT22;23001;45.952;12.676;2023-04-03T09:40:40;14.60;94.60
37086;DHT22;23001;45.952;12.676;2023-04-03T09:43:22;14.70;95.10
37086;DHT22;23001;45.952;12.676;2023-04-03T09:45:49;14.70;93.80
37086;DHT22;23001;45.952;12.676;2023-04-03T09:51:10;14.80;94.30
37086;DHT22;23001;45.952;12.676;2023-04-03T09:53:41;14.90;93.60
37086;DHT22;23001;45.952;12.676;2023-04-03T09:58:46;15.20;92.50
37086;DHT22;23001;45.952;12.676;2023-04-03T10:01:25;14.80;92.80
37086;DHT22;23001;45.952;12.676;2023-04-03T10:06:47;14.70;93.20
37086;DHT22;23001;45.952;12.676;2023-04-03T10:09:39;15.20;92.40
37086;DHT22;23001;45.952;12.676;2023-04-03T10:12:11;15.30;91.90
37086;DHT22;23001;45.952;12.676;2023-04-03T10:14:39;15.40;92.40
37086;DHT22;23001;45.952;12.676;2023-04-03T10:22:22;14.80;91.60
37086;DHT22;23001;45.952;12.676;2023-04-03T10:41:10;15.20;92.00
37086;DHT22;23001;45.952;12.676;2023-04-03T10:51:35;15.40;91.10
37086;DHT22;23001;45.952;12.676;2023-04-03T10:54:08;15.30;90.80
37086;DHT22;23001;45.952;12.676;2023-04-03T10:56:50;15.30;90.00
37086;DHT22;23001;45.952;12.676;2023-04-03T11:01:48;15.80;91.50
37086;DHT22;23001;45.952;12.676;2023-04-03T11:04:22;15.70;89.50
37086;DHT22;23001;45.952;12.676;2023-04-03T11:07:00;15.60;90.20
37086;DHT22;23001;45.952;12.676;2023-04-03T11:09:32;15.60;90.00
37086;DHT22;23001;45.952;12.676;2023-04-03T11:12:46;15.70;90.70
37086;DHT22;23001;45.952;12.676;2023-04-03T11:14:53;15.80;89.00
37086;DHT22;23001;45.952;12.676;2023-04-03T11:17:24;15.90;89.80
37086;DHT22;23001;45.952;12.676;2023-04-03T11:22:38;15.60;88.60
37086;DHT22;23001;45.952;12.676;2023-04-03T11:27:43;15.70;87.40
37086;DHT22;23001;45.952;12.676;2023-04-03T11:30:13;15.50;85.90
37086;DHT22;23001;45.952;12.676;2023-04-03T11:32:49;15.50;86.20
37086;DHT22;23001;45.952;12.676;2023-04-03T11:35:24;15.40;85.90
37086;DHT22;23001;45.952;12.676;2023-04-03T11:37:55;15.50;89.90
37086;DHT22;23001;45.952;12.676;2023-04-03T11:40:28;15.60;89.20
37086;DHT22;23001;45.952;12.676;2023-04-03T11:46:06;15.80;87.40
37086;DHT22;23001;45.952;12.676;2023-04-03T11:53:49;15.80;85.90
37086;DHT22;23001;45.952;12.676;2023-04-03T12:10:40;16.10;84.90
37086;DHT22;23001;45.952;12.676;2023-04-03T12:13:12;16.20;83.10
37086;DHT22;23001;45.952;12.676;2023-04-03T12:21:11;16.30;82.20
37086;DHT22;23001;45.952;12.676;2023-04-03T12:23:56;16.30;84.00
37086;DHT22;23001;45.952;12.676;2023-04-03T12:26:23;16.10;81.10
37086;DHT22;23001;45.952;12.676;2023-04-03T12:42:18;16.40;81.40
37086;DHT22;23001;45.952;12.676;2023-04-03T12:51:52;16.40;79.60
37086;DHT22;23001;45.952;12.676;2023-04-03T12:54:19;16.50;80.50
37086;DHT22;23001;45.952;12.676;2023-04-03T12:57:12;16.50;80.60
37086;DHT22;23001;45.952;12.676;2023-04-03T13:02:56;16.50;79.60
37086;DHT22;23001;45.952;12.676;2023-04-03T13:08:15;16.60;79.00
37086;DHT22;23001;45.952;12.676;2023-04-03T13:10:55;16.80;78.20
37086;DHT22;23001;45.952;12.676;2023-04-03T13:13:22;16.70;79.60
37086;DHT22;23001;45.952;12.676;2023-04-03T13:15:54;16.60;77.80
37086;DHT22;23001;45.952;12.676;2023-04-03T13:18:24;16.60;77.90
37086;DHT22;23001;45.952;12.676;2023-04-03T13:20:55;16.70;77.90
37086;DHT22;23001;45.952;12.676;2023-04-03T13:23:27;16.80;78.30
37086;DHT22;23001;45.952;12.676;2023-04-03T13:25:53;16.90;78.10
37086;DHT22;23001;45.952;12.676;2023-04-03T13:31:51;17.20;77.50
37086;DHT22;23001;45.952;12.676;2023-04-03T13:34:47;17.00;76.70
37086;DHT22;23001;45.952;12.676;2023-04-03T13:41:27;16.90;73.60
37086;DHT22;23001;45.952;12.676;2023-04-03T13:47:27;17.00;76.00
37086;DHT22;23001;45.952;12.676;2023-04-03T13:50:59;16.90;75.50
37086;DHT22;23001;45.952;12.676;2023-04-03T13:57:10;16.70;73.80
37086;DHT22;23001;45.952;12.676;2023-04-03T14:06:24;16.90;74.90
37086;DHT22;23001;45.952;12.676;2023-04-03T14:09:07;17.10;74.60
37086;DHT22;23001;45.952;12.676;2023-04-03T14:12:05;17.20;74.90
37086;DHT22;23001;45.952;12.676;2023-04-03T14:15:29;17.30;73.90
37086;DHT22;23001;45.952;12.676;2023-04-03T14:18:29;17.30;73.10
37086;DHT22;23001;45.952;12.676;2023-04-03T14:21:06;17.30;73.50
37086;DHT22;23001;45.952;12.676;2023-04-03T14:23:40;17.10;74.90
37086;DHT22;23001;45.952;12.676;2023-04-03T14:26:12;17.10;78.50
37086;DHT22;23001;45.952;12.676;2023-04-03T14:28:48;17.00;78.20
37086;DHT22;23001;45.952;12.676;2023-04-03T14:33:56;16.80;78.00
37086;DHT22;23001;45.952;12.676;2023-04-03T14:36:23;16.80;78.60
37086;DHT22;23001;45.952;12.676;2023-04-03T14:38:50;16.90;77.70
37086;DHT22;23001;45.952;12.676;2023-04-03T14:41:17;16.80;78.00
37086;DHT22;23001;45.952;12.676;2023-04-03T14:43:49;16.80;78.10
37086;DHT22;23001;45.952;12.676;2023-04-03T14:46:18;16.80;78.00
37086;DHT22;23001;45.952;12.676;2023-04-03T14:48:44;16.80;76.70
37086;DHT22;23001;45.952;12.676;2023-04-03T14:51:16;16.80;78.10
37086;DHT22;23001;45.952;12.676;2023-04-03T14:53:42;16.70;77.30
37086;DHT22;23001;45.952;12.676;2023-04-03T14:56:16;16.70;77.80
37086;DHT22;23001;45.952;12.676;2023-04-03T14:58:45;16.70;78.70
37086;DHT22;23001;45.952;12.676;2023-04-03T15:01:14;16.70;79.60
37086;DHT22;23001;45.952;12.676;2023-04-03T15:03:40;16.70;76.00
37086;DHT22;23001;45.952;12.676;2023-04-03T15:08:48;16.60;77.60
37086;DHT22;23001;45.952;12.676;2023-04-03T15:11:17;16.60;77.10
37086;DHT22;23001;45.952;12.676;2023-04-03T15:13:43;16.50;76.80
37086;DHT22;23001;45.952;12.676;2023-04-03T15:16:13;16.50;76.90
37086;DHT22;23001;45.952;12.676;2023-04-03T15:18:44;16.40;76.00
37086;DHT22;23001;45.952;12.676;2023-04-03T15:21:10;16.40;75.70
37086;DHT22;23001;45.952;12.676;2023-04-03T15:23:36;16.40;75.60
37086;DHT22;23001;45.952;12.676;2023-04-03T15:26:01;16.30;75.90
37086;DHT22;23001;45.952;12.676;2023-04-03T15:28:28;16.50;76.00
37086;DHT22;23001;45.952;12.676;2023-04-03T15:30:55;16.50;76.80
37086;DHT22;23001;45.952;12.676;2023-04-03T15:33:21;16.40;75.40
37086;DHT22;23001;45.952;12.676;2023-04-03T15:35:47;16.30;75.50
37086;DHT22;23001;45.952;12.676;2023-04-03T15:38:12;16.20;74.90
37086;DHT22;23001;45.952;12.676;2023-04-03T15:40:38;16.20;76.50
37086;DHT22;23001;45.952;12.676;2023-04-03T15:43:04;16.30;78.70
37086;DHT22;23001;45.952;12.676;2023-04-03T15:45:30;16.40;77.00
37086;DHT22;23001;45.952;12.676;2023-04-03T15:47:56;16.40;77.30
37086;DHT22;23001;45.952;12.676;2023-04-03T15:50:22;16.30;76.40
37086;DHT22;23001;45.952;12.676;2023-04-03T15:52:50;16.20;75.50
37086;DHT22;23001;45.952;12.676;2023-04-03T15:55:22;16.00;75.90
37086;DHT22;23001;45.952;12.676;2023-04-03T15:57:48;15.90;77.70
37086;DHT22;23001;45.952;12.676;2023-04-03T16:00:13;16.00;76.40
37086;DHT22;23001;45.952;12.676;2023-04-03T16:02:39;16.10;76.80
37086;DHT22;23001;45.952;12.676;2023-04-03T16:05:05;16.00;76.00
37086;DHT22;23001;45.952;12.676;2023-04-03T16:07:31;16.10;77.10
37086;DHT22;23001;45.952;12.676;2023-04-03T16:09:57;16.00;76.60
37086;DHT22;23001;45.952;12.676;2023-04-03T16:12:23;16.00;76.80
37086;DHT22;23001;45.952;12.676;2023-04-03T16:14:48;16.00;77.80
37086;DHT22;23001;45.952;12.676;2023-04-03T16:17:14;15.80;77.40
37086;DHT22;23001;45.952;12.676;2023-04-03T16:19:39;15.70;76.50
37086;DHT22;23001;45.952;12.676;2023-04-03T16:22:05;15.50;76.60
37086;DHT22;23001;45.952;12.676;2023-04-03T16:24:31;15.50;76.70
37086;DHT22;23001;45.952;12.676;2023-04-03T16:27:00;15.50;77.50
37086;DHT22;23001;45.952;12.676;2023-04-03T16:29:25;15.40;77.40
37086;DHT22;23001;45.952;12.676;2023-04-03T16:31:51;15.40;77.50
37086;DHT22;23001;45.952;12.676;2023-04-03T16:34:17;15.40;77.80
37086;DHT22;23001;45.952;12.676;2023-04-03T16:36:52;15.30;78.20
37086;DHT22;23001;45.952;12.676;2023-04-03T16:39:18;15.30;78.00
37086;DHT22;23001;45.952;12.676;2023-04-03T16:41:45;15.20;78.80
37086;DHT22;23001;45.952;12.676;2023-04-03T16:44:11;15.10;78.50
37086;DHT22;23001;45.952;12.676;2023-04-03T16:46:36;15.10;79.00
37086;DHT22;23001;45.952;12.676;2023-04-03T16:49:02;15.00;79.80
37086;DHT22;23001;45.952;12.676;2023-04-03T16:51:28;14.90;79.50
37086;DHT22;23001;45.952;12.676;2023-04-03T16:53:55;15.00;79.40
37086;DHT22;23001;45.952;12.676;2023-04-03T16:56:21;14.90;79.90
37086;DHT22;23001;45.952;12.676;2023-04-03T17:05:03;14.90;79.40
37086;DHT22;23001;45.952;12.676;2023-04-03T17:07:32;15.00;78.50
37086;DHT22;23001;45.952;12.676;2023-04-03T17:10:11;14.90;79.30
37086;DHT22;23001;45.952;12.676;2023-04-03T17:12:44;14.90;79.90
37086;DHT22;23001;45.952;12.676;2023-04-03T17:15:20;14.90;79.40
37086;DHT22;23001;45.952;12.676;2023-04-03T17:17:58;14.80;80.10
37086;DHT22;23001;45.952;12.676;2023-04-03T17:20:38;14.70;80.30
37086;DHT22;23001;45.952;12.676;2023-04-03T17:23:11;14.70;80.90
37086;DHT22;23001;45.952;12.676;2023-04-03T17:25:42;14.50;80.60
37086;DHT22;23001;45.952;12.676;2023-04-03T17:28:26;14.50;81.70
37086;DHT22;23001;45.952;12.676;2023-04-03T17:31:03;14.40;81.50
37086;DHT22;23001;45.952;12.676;2023-04-03T17:33:31;14.30;81.40
37086;DHT22;23001;45.952;12.676;2023-04-03T17:36:01;14.30;82.30
37086;DHT22;23001;45.952;12.676;2023-04-03T17:39:03;14.30;81.60
37086;DHT22;23001;45.952;12.676;2023-04-03T17:41:29;13.90;83.10
37086;DHT22;23001;45.952;12.676;2023-04-03T17:44:00;14.00;83.20
37086;DHT22;23001;45.952;12.676;2023-04-03T17:46:34;14.00;83.00
37086;DHT22;23001;45.952;12.676;2023-04-03T17:49:00;14.00;83.30
37086;DHT22;23001;45.952;12.676;2023-04-03T17:51:26;13.80;84.00
37086;DHT22;23001;45.952;12.676;2023-04-03T17:53:52;13.80;84.00
37086;DHT22;23001;45.952;12.676;2023-04-03T17:56:19;13.50;84.90
37086;DHT22;23001;45.952;12.676;2023-04-03T17:59:02;13.30;85.80
37086;DHT22;23001;45.952;12.676;2023-04-03T18:01:30;13.20;84.70
37086;DHT22;23001;45.952;12.676;2023-04-03T18:03:57;13.00;85.00
37086;DHT22;23001;45.952;12.676;2023-04-03T18:06:25;13.10;84.90
37086;DHT22;23001;45.952;12.676;2023-04-03T18:08:52;13.00;85.70